Time;durP1;ratioP1;P1;durP2;ratioP2;P2;SDS_P1;SDS_P2;PMS_P1;PMS_P2;Temp;Humidity;BMP_temperature;BMP_pressure;BME280_temperature;BME280_humidity;BME280_pressure;Samples;Min_cycle;Max_cycle;Signal;HPM_P1;HPM_P2
2022/06/28 00:00:08;;;;;;;19.52;3.67;;;;;;;;;;5014483;28;20216;-62
2022/06/28 00:02:34;;;;;;;11.40;3.08;;;;;;;;;;5014900;28;20187;-62
2022/06/28 00:05:00;;;;;;;11.10;3.30;;;;;;;;;;4996990;28;20185;-62
2022/06/28 00:07:26;;;;;;;11.82;3.00;;;;;;;;;;5014076;28;20272;-64
2022/06/28 00:09:52;;;;;;;14.27;3.25;;;;;;;;;;5011559;28;20220;-62
2022/06/28 00:12:18;;;;;;;12.95;3.08;;;;;;;;;;4996671;28;20587;-62
2022/06/28 00:17:29;;;;;;;14.50;3.00;;;;;;;;;;5013704;28;20242;-62
2022/06/28 00:19:55;;;;;;;15.20;2.90;;;;;;;;;;5014187;28;20262;-62
2022/06/28 00:22:21;;;;;;;11.65;3.20;;;;;;;;;;4996683;28;20184;-62
2022/06/28 00:24:47;;;;;;;12.07;3.50;;;;;;;;;;5013955;28;20215;-62
2022/06/28 00:27:13;;;;;;;10.75;3.00;;;;;;;;;;4995801;28;20544;-63
2022/06/28 00:29:39;;;;;;;20.30;3.22;;;;;;;;;;4996533;28;20200;-62
2022/06/28 00:32:06;;;;;;;13.38;3.30;;;;;;;;;;4995878;28;20192;-62
2022/06/28 00:34:32;;;;;;;15.43;3.95;;;;;;;;;;4980230;28;20192;-62
2022/06/28 00:36:58;;;;;;;18.25;3.65;;;;;;;;;;4994843;28;20649;-62
2022/06/28 00:39:25;;;;;;;11.68;3.38;;;;;;;;;;4995690;28;20216;-62
2022/06/28 00:41:51;;;;;;;11.82;3.22;;;;;;;;;;5013583;28;20649;-62
2022/06/28 00:44:17;;;;;;;15.13;3.45;;;;;;;;;;5013752;28;20192;-62
2022/06/28 00:46:44;;;;;;;15.05;3.15;;;;;;;;;;5014168;28;20640;-61
2022/06/28 00:49:10;;;;;;;12.52;3.30;;;;;;;;;;5012819;28;20227;-61
2022/06/28 00:51:36;;;;;;;12.10;3.30;;;;;;;;;;5013151;28;20272;-62
2022/06/28 00:54:03;;;;;;;12.02;3.47;;;;;;;;;;4996258;28;20184;-61
2022/06/28 00:56:29;;;;;;;12.20;3.05;;;;;;;;;;4995143;28;20222;-61
2022/06/28 00:58:55;;;;;;;14.95;4.03;;;;;;;;;;5013780;28;20216;-61
2022/06/28 01:01:22;;;;;;;11.30;3.13;;;;;;;;;;4996195;28;20792;-61
2022/06/28 01:03:49;;;;;;;12.38;3.38;;;;;;;;;;4995970;28;20203;-61
2022/06/28 01:06:16;;;;;;;15.90;3.38;;;;;;;;;;4976716;28;20240;-62
2022/06/28 01:08:43;;;;;;;15.73;3.58;;;;;;;;;;5013933;28;20212;-61
2022/06/28 01:11:21;;;;;;;12.85;3.03;;;;;;;;;;4995009;28;20224;-61
2022/06/28 01:13:55;;;;;;;12.35;2.97;;;;;;;;;;4995938;28;20228;-61
2022/06/28 01:16:23;;;;;;;13.35;2.95;;;;;;;;;;4994016;28;20706;-62
2022/06/28 01:18:52;;;;;;;13.63;2.80;;;;;;;;;;4976058;28;20266;-61
2022/06/28 01:21:36;;;;;;;10.25;2.90;;;;;;;;;;4996167;28;20541;-61
2022/06/28 01:24:02;;;;;;;12.63;2.95;;;;;;;;;;5013614;28;20230;-62
2022/06/28 01:26:52;;;;;;;11.18;2.80;;;;;;;;;;5012640;28;20195;-63
2022/06/28 01:29:19;;;;;;;11.45;2.67;;;;;;;;;;4995705;28;20206;-61
2022/06/28 01:31:54;;;;;;;10.00;2.53;;;;;;;;;;4996154;28;20184;-61
2022/06/28 01:34:21;;;;;;;12.82;2.60;;;;;;;;;;4994182;28;20323;-61
2022/06/28 01:36:47;;;;;;;7.88;2.60;;;;;;;;;;4995832;28;20180;-61
2022/06/28 01:39:15;;;;;;;9.25;2.80;;;;;;;;;;4994303;28;20211;-61
2022/06/28 01:41:43;;;;;;;12.55;2.50;;;;;;;;;;4994657;28;20188;-62
2022/06/28 01:44:16;;;;;;;10.65;2.70;;;;;;;;;;4995835;28;20295;-61
2022/06/28 01:46:58;;;;;;;9.98;2.58;;;;;;;;;;4994738;28;20214;-61
2022/06/28 01:49:36;;;;;;;10.88;2.67;;;;;;;;;;4994367;28;20262;-61
2022/06/28 01:52:04;;;;;;;11.73;2.70;;;;;;;;;;5013003;28;20193;-62
2022/06/28 01:54:30;;;;;;;14.57;2.55;;;;;;;;;;4994854;28;20759;-61
2022/06/28 01:56:56;;;;;;;10.40;2.22;;;;;;;;;;4995652;28;20212;-61
2022/06/28 01:59:26;;;;;;;20.60;4.35;;;;;;;;;;4994532;28;20212;-61
2022/06/28 02:02:01;;;;;;;14.15;3.47;;;;;;;;;;4994348;28;20196;-63
2022/06/28 02:04:37;;;;;;;14.90;5.45;;;;;;;;;;4998554;28;20250;-62
2022/06/28 02:07:05;;;;;;;12.68;2.88;;;;;;;;;;4999360;28;20283;-61
2022/06/28 02:09:36;;;;;;;12.05;2.60;;;;;;;;;;4998198;28;20228;-62
2022/06/28 02:12:03;;;;;;;11.20;2.35;;;;;;;;;;4982789;28;20184;-62
2022/06/28 02:14:31;;;;;;;15.82;2.42;;;;;;;;;;5016125;28;20243;-61
2022/06/28 02:17:00;;;;;;;19.15;2.90;;;;;;;;;;4998670;28;20668;-62
2022/06/28 02:19:27;;;;;;;13.85;2.72;;;;;;;;;;4981235;28;20212;-61
2022/06/28 02:21:54;;;;;;;12.38;2.13;;;;;;;;;;4979949;28;20197;-62
2022/06/28 02:24:24;;;;;;;19.05;2.72;;;;;;;;;;4979488;28;20189;-61
2022/06/28 02:26:51;;;;;;;8.73;2.03;;;;;;;;;;4979711;28;20185;-61
2022/06/28 02:29:17;;;;;;;8.80;2.15;;;;;;;;;;4998202;28;20199;-62
2022/06/28 02:31:43;;;;;;;16.13;2.35;;;;;;;;;;4998799;28;20184;-62
2022/06/28 02:40:21;;;;;;;10.57;2.45;;;;;;;;;;4998475;28;20234;-62
2022/06/28 02:42:25;;;;;;;15.98;2.67;;;;;;;;;;5015209;28;20238;-61
2022/06/28 02:44:51;;;;;;;12.98;2.67;;;;;;;;;;5015410;28;20208;-62
2022/06/28 02:47:18;;;;;;;17.98;3.22;;;;;;;;;;5014610;28;20186;-62
2022/06/28 02:49:44;;;;;;;10.63;2.30;;;;;;;;;;4998665;28;20279;-61
2022/06/28 02:52:10;;;;;;;15.57;2.08;;;;;;;;;;4998118;28;20180;-62
2022/06/28 02:54:36;;;;;;;13.85;2.50;;;;;;;;;;4998335;28;20196;-62
2022/06/28 02:57:02;;;;;;;14.02;2.90;;;;;;;;;;4998077;28;20200;-62
2022/06/28 02:59:28;;;;;;;12.20;2.33;;;;;;;;;;5014975;28;20222;-61
2022/06/28 03:01:54;;;;;;;16.27;2.45;;;;;;;;;;4982290;28;20192;-62
2022/06/28 03:04:21;;;;;;;16.75;2.50;;;;;;;;;;4998285;28;20197;-61
2022/06/28 03:06:47;;;;;;;15.65;2.17;;;;;;;;;;4996583;28;20242;-62
2022/06/28 03:09:14;;;;;;;13.80;2.20;;;;;;;;;;4997270;28;20241;-62
2022/06/28 03:11:41;;;;;;;15.65;2.83;;;;;;;;;;4998004;28;20204;-61
2022/06/28 03:14:07;;;;;;;12.23;2.05;;;;;;;;;;4997562;28;20184;-62
2022/06/28 03:16:33;;;;;;;14.32;2.35;;;;;;;;;;4997861;28;20188;-62
2022/06/28 03:19:00;;;;;;;8.32;2.05;;;;;;;;;;4982840;28;20568;-62
2022/06/28 03:21:26;;;;;;;12.23;2.35;;;;;;;;;;4995756;28;20186;-62
2022/06/28 03:23:52;;;;;;;13.68;1.95;;;;;;;;;;4978341;28;20660;-63
2022/06/28 03:26:20;;;;;;;12.80;2.28;;;;;;;;;;4978601;28;20276;-61
2022/06/28 03:28:46;;;;;;;15.95;2.50;;;;;;;;;;4995970;28;20197;-61
2022/06/28 03:31:13;;;;;;;21.75;2.28;;;;;;;;;;4997881;28;20674;-61
2022/06/28 03:33:39;;;;;;;14.18;2.08;;;;;;;;;;4981779;28;20705;-61
2022/06/28 03:36:05;;;;;;;12.80;2.30;;;;;;;;;;5015352;28;20181;-61
2022/06/28 03:38:36;;;;;;;16.77;2.63;;;;;;;;;;4995862;28;20216;-62
2022/06/28 03:41:09;;;;;;;14.88;2.33;;;;;;;;;;4996298;28;20331;-62
2022/06/28 03:43:37;;;;;;;14.30;2.30;;;;;;;;;;4997720;28;20196;-62
2022/06/28 03:46:04;;;;;;;15.30;2.60;;;;;;;;;;4981290;28;20283;-62
2022/06/28 03:48:42;;;;;;;13.32;2.50;;;;;;;;;;4978200;28;20189;-62
2022/06/28 03:51:23;;;;;;;14.98;2.30;;;;;;;;;;4984765;28;20648;-63
2022/06/28 03:54:09;;;;;;;14.35;2.88;;;;;;;;;;4984350;28;20189;-61
2022/06/28 03:56:42;;;;;;;14.68;2.25;;;;;;;;;;4978297;28;20185;-61
2022/06/28 03:59:08;;;;;;;11.82;2.63;;;;;;;;;;4977899;28;20209;-61
2022/06/28 04:01:34;;;;;;;12.35;3.00;;;;;;;;;;4989052;28;20284;-62
2022/06/28 04:04:02;;;;;;;17.23;2.42;;;;;;;;;;4996670;28;20303;-62
2022/06/28 04:06:29;;;;;;;18.25;3.13;;;;;;;;;;4996399;28;20189;-61
2022/06/28 04:08:55;;;;;;;16.73;2.85;;;;;;;;;;4996105;28;20316;-60
2022/06/28 04:11:23;;;;;;;19.85;2.70;;;;;;;;;;4996254;28;20181;-61
2022/06/28 04:13:50;;;;;;;14.77;2.72;;;;;;;;;;5012838;28;20732;-61
2022/06/28 04:16:19;;;;;;;12.10;2.65;;;;;;;;;;4996371;28;20185;-61
2022/06/28 04:18:45;;;;;;;19.30;3.22;;;;;;;;;;4997049;28;20303;-61
2022/06/28 04:21:30;;;;;;;11.35;2.70;;;;;;;;;;4997012;28;20192;-60
2022/06/28 04:24:06;;;;;;;12.63;2.45;;;;;;;;;;4995738;28;20193;-60
2022/06/28 04:26:32;;;;;;;12.88;2.60;;;;;;;;;;4996110;28;20184;-60
2022/06/28 04:28:59;;;;;;;11.75;2.60;;;;;;;;;;4996312;28;20216;-60
2022/06/28 04:31:28;;;;;;;11.75;3.13;;;;;;;;;;4998964;28;20235;-60
2022/06/28 04:33:54;;;;;;;15.82;2.83;;;;;;;;;;4996443;28;20235;-60
2022/06/28 04:36:26;;;;;;;10.15;2.70;;;;;;;;;;4995111;28;20196;-60
2022/06/28 04:38:53;;;;;;;10.73;2.55;;;;;;;;;;4996314;28;20751;-60
2022/06/28 04:41:24;;;;;;;14.90;2.60;;;;;;;;;;4995677;28;20180;-61
2022/06/28 04:44:10;;;;;;;17.67;3.13;;;;;;;;;;5007632;28;20203;-60
2022/06/28 04:46:41;;;;;;;8.85;2.70;;;;;;;;;;4996399;28;20263;-59
2022/06/28 04:49:15;;;;;;;14.02;2.92;;;;;;;;;;4994982;28;20254;-61
2022/06/28 04:51:44;;;;;;;13.13;2.88;;;;;;;;;;4995802;28;20621;-60
2022/06/28 04:54:15;;;;;;;14.32;2.80;;;;;;;;;;4996105;28;20303;-60
2022/06/28 04:57:04;;;;;;;12.32;3.03;;;;;;;;;;5013639;28;20192;-62
2022/06/28 04:59:30;;;;;;;12.40;2.30;;;;;;;;;;5013601;28;20212;-61
2022/06/28 05:01:58;;;;;;;19.05;2.70;;;;;;;;;;4994607;28;20380;-61
2022/06/28 05:04:24;;;;;;;13.70;2.58;;;;;;;;;;4976087;28;20657;-61
2022/06/28 05:07:13;;;;;;;11.88;2.60;;;;;;;;;;4982261;28;20184;-61
2022/06/28 05:09:41;;;;;;;11.35;2.80;;;;;;;;;;4993712;28;20350;-61
2022/06/28 05:12:07;;;;;;;16.83;2.80;;;;;;;;;;5012649;28;20188;-61
2022/06/28 05:14:39;;;;;;;10.95;2.95;;;;;;;;;;4994847;28;20546;-61
2022/06/28 05:17:05;;;;;;;12.63;2.80;;;;;;;;;;4996001;28;20231;-64
2022/06/28 05:19:33;;;;;;;15.07;3.30;;;;;;;;;;4995172;28;20339;-60
2022/06/28 05:22:00;;;;;;;15.70;3.17;;;;;;;;;;5012508;28;20189;-61
2022/06/28 05:24:26;;;;;;;17.58;3.08;;;;;;;;;;4994740;28;20184;-62
2022/06/28 05:27:02;;;;;;;14.43;3.00;;;;;;;;;;4994741;28;20671;-62
2022/06/28 05:29:37;;;;;;;10.30;2.83;;;;;;;;;;4992953;28;20291;-61
2022/06/28 05:32:03;;;;;;;20.60;3.60;;;;;;;;;;4983610;28;20187;-63
2022/06/28 05:34:30;;;;;;;15.90;3.40;;;;;;;;;;4995787;28;20188;-61
2022/06/28 05:36:56;;;;;;;16.42;3.40;;;;;;;;;;4993907;28;20239;-61
2022/06/28 05:39:23;;;;;;;16.70;4.03;;;;;;;;;;5011994;28;20200;-61
2022/06/28 05:41:49;;;;;;;26.17;4.45;;;;;;;;;;5012097;28;20203;-61
2022/06/28 05:44:16;;;;;;;15.63;3.85;;;;;;;;;;4979241;28;20303;-61
2022/06/28 05:46:44;;;;;;;17.58;3.65;;;;;;;;;;4996160;28;20192;-61
2022/06/28 05:49:10;;;;;;;15.93;4.43;;;;;;;;;;4994563;28;20200;-61
2022/06/28 05:51:36;;;;;;;14.05;3.75;;;;;;;;;;4994637;28;20185;-61
2022/06/28 05:54:03;;;;;;;22.90;4.13;;;;;;;;;;4995998;28;20181;-61
2022/06/28 05:56:31;;;;;;;11.77;3.58;;;;;;;;;;5012952;28;20826;-61
2022/06/28 05:58:57;;;;;;;15.20;4.40;;;;;;;;;;5013627;28;20765;-61
2022/06/28 06:01:25;;;;;;;19.55;4.13;;;;;;;;;;4995332;28;20188;-61
2022/06/28 06:03:53;;;;;;;17.35;4.70;;;;;;;;;;4995165;28;20188;-61
2022/06/28 06:06:22;;;;;;;25.27;4.60;;;;;;;;;;5012961;28;20275;-62
2022/06/28 06:08:50;;;;;;;17.50;4.78;;;;;;;;;;4993916;28;20188;-62
2022/06/28 06:11:16;;;;;;;22.63;4.85;;;;;;;;;;4992447;28;20245;-61
2022/06/28 06:13:42;;;;;;;18.98;4.88;;;;;;;;;;4986358;28;20185;-61
2022/06/28 06:16:08;;;;;;;21.65;4.85;;;;;;;;;;4976598;28;20179;-62
2022/06/28 06:18:34;;;;;;;18.77;5.05;;;;;;;;;;4981962;28;20208;-61
2022/06/28 06:21:00;;;;;;;25.33;5.22;;;;;;;;;;5012345;28;20615;-62
2022/06/28 06:23:27;;;;;;;18.58;4.40;;;;;;;;;;4993735;28;20181;-62
2022/06/28 06:26:04;;;;;;;27.75;5.18;;;;;;;;;;5011579;28;20196;-62
2022/06/28 06:28:34;;;;;;;17.73;4.97;;;;;;;;;;4995377;28;20763;-60
2022/06/28 06:31:00;;;;;;;18.08;5.43;;;;;;;;;;5013056;28;20185;-59
2022/06/28 06:33:45;;;;;;;22.17;4.57;;;;;;;;;;5012200;28;20566;-60
2022/06/28 06:36:25;;;;;;;21.88;4.40;;;;;;;;;;4979026;28;20181;-63
2022/06/28 06:38:51;;;;;;;21.02;4.50;;;;;;;;;;4994764;28;20744;-63
2022/06/28 06:41:18;;;;;;;21.23;3.80;;;;;;;;;;4993933;28;20234;-62
2022/06/28 06:43:49;;;;;;;23.23;3.92;;;;;;;;;;4978983;28;20189;-62
2022/06/28 06:46:16;;;;;;;28.88;3.58;;;;;;;;;;4993535;28;20547;-62
2022/06/28 06:48:42;;;;;;;20.05;3.72;;;;;;;;;;5013254;28;20180;-61
2022/06/28 06:51:10;;;;;;;24.02;3.55;;;;;;;;;;4988081;28;20181;-62
2022/06/28 06:53:36;;;;;;;21.42;3.47;;;;;;;;;;5010008;28;20181;-61
2022/06/28 06:56:03;;;;;;;18.92;3.65;;;;;;;;;;4980939;28;20180;-62
2022/06/28 06:58:30;;;;;;;19.25;3.53;;;;;;;;;;4997902;28;20216;-61
2022/06/28 07:00:57;;;;;;;16.80;3.55;;;;;;;;;;4998008;28;20188;-62
2022/06/28 07:03:24;;;;;;;19.50;3.28;;;;;;;;;;4998253;28;20210;-62
2022/06/28 07:05:50;;;;;;;19.73;3.42;;;;;;;;;;4980834;28;20187;-62
2022/06/28 07:08:16;;;;;;;21.65;3.50;;;;;;;;;;5004085;28;20180;-62
2022/06/28 07:10:51;;;;;;;21.05;3.60;;;;;;;;;;4994101;28;20225;-62
2022/06/28 07:13:18;;;;;;;26.70;3.90;;;;;;;;;;4994233;28;20193;-61
2022/06/28 07:15:45;;;;;;;19.70;3.53;;;;;;;;;;4995418;28;20197;-62
2022/06/28 07:18:13;;;;;;;16.33;3.33;;;;;;;;;;4995024;28;20188;-61
2022/06/28 07:20:39;;;;;;;20.33;3.63;;;;;;;;;;4995192;28;20174;-63
2022/06/28 07:23:05;;;;;;;19.77;4.22;;;;;;;;;;4995318;28;20182;-64
2022/06/28 07:25:31;;;;;;;20.80;4.45;;;;;;;;;;4993743;28;20189;-63
2022/06/28 07:27:57;;;;;;;19.55;4.00;;;;;;;;;;4994850;28;20185;-64
2022/06/28 07:30:24;;;;;;;18.77;3.60;;;;;;;;;;4995769;28;20185;-63
2022/06/28 07:32:51;;;;;;;25.27;3.35;;;;;;;;;;4994720;28;20185;-62
2022/06/28 07:35:18;;;;;;;19.90;3.30;;;;;;;;;;4993053;28;20497;-63
2022/06/28 07:37:46;;;;;;;22.13;3.92;;;;;;;;;;4994345;28;20220;-64
2022/06/28 07:40:13;;;;;;;18.17;3.28;;;;;;;;;;4978554;28;20220;-63
2022/06/28 07:43:14;;;;;;;17.25;2.95;;;;;;;;;;4954567;28;20186;-63
2022/06/28 07:45:44;;;;;;;20.88;3.50;;;;;;;;;;4976323;28;20194;-63
2022/06/28 07:48:14;;;;;;;17.38;2.67;;;;;;;;;;4993510;28;20216;-67
2022/06/28 07:53:26;;;;;;;23.75;3.45;;;;;;;;;;4994341;28;20275;-62
2022/06/28 07:56:20;;;;;;;19.52;2.95;;;;;;;;;;4994612;28;20174;-61
2022/06/28 07:58:48;;;;;;;22.33;3.17;;;;;;;;;;4992380;28;20198;-62
2022/06/28 08:01:19;;;;;;;18.10;3.45;;;;;;;;;;4991707;28;20193;-62
2022/06/28 08:03:45;;;;;;;14.48;2.97;;;;;;;;;;4977959;28;20192;-60
2022/06/28 08:06:12;;;;;;;21.85;2.92;;;;;;;;;;4994174;28;20178;-60
2022/06/28 08:08:47;;;;;;;16.45;2.53;;;;;;;;;;4993657;28;20232;-61
2022/06/28 08:11:14;;;;;;;17.10;2.75;;;;;;;;;;4974510;28;20225;-60
2022/06/28 08:13:41;;;;;;;15.75;2.55;;;;;;;;;;4993622;28;20563;-60
2022/06/28 08:16:08;;;;;;;14.30;2.90;;;;;;;;;;4993961;28;20591;-60
2022/06/28 08:18:34;;;;;;;15.63;2.78;;;;;;;;;;4995062;28;20326;-61
2022/06/28 08:21:01;;;;;;;15.93;2.70;;;;;;;;;;4992015;28;20653;-63
2022/06/28 08:23:27;;;;;;;14.32;3.08;;;;;;;;;;4993159;28;20185;-63
2022/06/28 08:25:54;;;;;;;13.32;2.30;;;;;;;;;;4996903;28;20653;-63
2022/06/28 08:28:20;;;;;;;14.07;2.78;;;;;;;;;;4994902;28;20185;-63
2022/06/28 08:30:46;;;;;;;10.52;2.20;;;;;;;;;;4992278;28;20186;-60
2022/06/28 08:33:12;;;;;;;15.93;3.13;;;;;;;;;;4993605;28;20196;-60
2022/06/28 08:35:39;;;;;;;11.82;2.40;;;;;;;;;;4993214;28;20185;-58
2022/06/28 08:38:05;;;;;;;18.35;2.90;;;;;;;;;;4993796;28;20197;-61
2022/06/28 08:40:32;;;;;;;11.10;2.65;;;;;;;;;;4993362;28;20219;-62
2022/06/28 08:42:58;;;;;;;15.43;3.22;;;;;;;;;;4992744;28;20212;-61
2022/06/28 08:45:25;;;;;;;17.48;2.88;;;;;;;;;;4993691;28;20197;-60
2022/06/28 08:47:52;;;;;;;14.88;2.40;;;;;;;;;;4994559;28;20181;-60
2022/06/28 08:50:23;;;;;;;14.70;3.00;;;;;;;;;;4992949;28;20189;-62
2022/06/28 08:52:50;;;;;;;11.68;2.28;;;;;;;;;;4993207;28;20650;-62
2022/06/28 08:55:16;;;;;;;11.00;2.45;;;;;;;;;;4994108;28;20183;-62
2022/06/28 08:57:43;;;;;;;14.77;2.30;;;;;;;;;;4994155;28;20189;-61
2022/06/28 09:00:10;;;;;;;11.38;2.47;;;;;;;;;;4992264;28;20213;-62
2022/06/28 09:02:37;;;;;;;15.00;2.75;;;;;;;;;;4993458;28;20185;-62
2022/06/28 09:05:04;;;;;;;15.48;2.70;;;;;;;;;;4991944;28;20257;-62
2022/06/28 09:07:30;;;;;;;14.00;2.50;;;;;;;;;;4994083;28;20189;-63
2022/06/28 09:09:56;;;;;;;17.05;2.65;;;;;;;;;;5001199;28;20232;-62
2022/06/28 09:12:22;;;;;;;13.45;2.83;;;;;;;;;;5012742;28;20219;-62
2022/06/28 09:14:49;;;;;;;19.10;2.78;;;;;;;;;;5012416;28;20940;-62
2022/06/28 09:17:28;;;;;;;12.27;2.45;;;;;;;;;;5012759;28;20275;-61
2022/06/28 09:19:56;;;;;;;14.63;2.72;;;;;;;;;;5013516;28;20774;-62
2022/06/28 09:22:30;;;;;;;12.20;2.63;;;;;;;;;;5013441;28;20184;-62
2022/06/28 09:24:56;;;;;;;9.98;2.75;;;;;;;;;;4995745;28;20188;-63
2022/06/28 09:27:29;;;;;;;14.30;2.90;;;;;;;;;;5011495;28;20588;-62
2022/06/28 09:29:55;;;;;;;15.80;2.88;;;;;;;;;;5013049;28;20506;-62
2022/06/28 09:32:29;;;;;;;11.63;2.70;;;;;;;;;;5013707;28;20181;-62
2022/06/28 09:34:56;;;;;;;15.68;2.95;;;;;;;;;;4995867;28;20184;-62
2022/06/28 09:37:35;;;;;;;7.20;2.47;;;;;;;;;;4993821;28;20189;-62
2022/06/28 09:40:12;;;;;;;9.80;2.40;;;;;;;;;;5011936;28;20250;-66
2022/06/28 09:42:38;;;;;;;14.23;3.30;;;;;;;;;;5013062;28;20185;-62
2022/06/28 09:45:05;;;;;;;13.50;3.40;;;;;;;;;;4995757;28;20214;-63
2022/06/28 09:47:31;;;;;;;11.63;2.97;;;;;;;;;;4975536;28;20185;-62
2022/06/28 09:49:57;;;;;;;19.55;3.03;;;;;;;;;;5010063;28;20200;-62
2022/06/28 09:52:26;;;;;;;11.43;2.83;;;;;;;;;;5010043;28;20191;-63
2022/06/28 09:54:55;;;;;;;13.30;3.30;;;;;;;;;;5010305;28;20180;-62
2022/06/28 09:57:21;;;;;;;13.95;3.00;;;;;;;;;;5013158;28;20185;-62
2022/06/28 09:59:49;;;;;;;10.43;2.85;;;;;;;;;;5005329;28;20211;-61
2022/06/28 10:02:18;;;;;;;9.23;2.60;;;;;;;;;;5012263;28;20738;-62
2022/06/28 10:04:47;;;;;;;14.20;3.15;;;;;;;;;;5013095;28;20180;-62
2022/06/28 10:07:13;;;;;;;11.88;2.95;;;;;;;;;;5012686;28;20177;-62
2022/06/28 10:09:40;;;;;;;19.92;3.67;;;;;;;;;;4994248;28;20698;-62
2022/06/28 10:15:04;;;;;;;9.00;2.80;;;;;;;;;;5012216;28;20655;-62
2022/06/28 10:17:39;;;;;;;14.63;3.33;;;;;;;;;;5012896;28;20323;-62
2022/06/28 10:20:07;;;;;;;16.77;3.10;;;;;;;;;;5011234;28;20671;-64
2022/06/28 10:22:33;;;;;;;20.38;3.83;;;;;;;;;;5010999;28;20188;-62
2022/06/28 10:25:01;;;;;;;18.27;3.28;;;;;;;;;;4995552;28;20185;-61
2022/06/28 10:27:28;;;;;;;17.25;3.78;;;;;;;;;;5015106;28;20240;-62
2022/06/28 10:30:08;;;;;;;22.80;4.70;;;;;;;;;;5017264;28;20184;-61
2022/06/28 10:32:37;;;;;;;12.38;3.25;;;;;;;;;;5016836;28;20181;-59
2022/06/28 10:35:03;;;;;;;18.73;3.90;;;;;;;;;;5015553;28;20180;-60
2022/06/28 10:37:29;;;;;;;16.08;3.30;;;;;;;;;;5015497;28;20268;-60
2022/06/28 10:40:15;;;;;;;10.70;3.03;;;;;;;;;;4998042;28;20711;-60
2022/06/28 10:42:51;;;;;;;13.40;3.25;;;;;;;;;;4978960;28;20627;-59
2022/06/28 10:45:20;;;;;;;16.80;3.50;;;;;;;;;;4997024;28;20212;-59
2022/06/28 10:48:13;;;;;;;15.10;3.35;;;;;;;;;;5005889;28;20271;-60
2022/06/28 10:50:58;;;;;;;15.88;3.55;;;;;;;;;;5013222;28;20242;-60
2022/06/28 10:53:25;;;;;;;10.70;3.38;;;;;;;;;;5015327;28;20208;-60
2022/06/28 10:56:09;;;;;;;15.13;3.05;;;;;;;;;;5016268;28;20185;-59
2022/06/28 10:58:53;;;;;;;18.10;3.45;;;;;;;;;;5016475;28;20181;-60
2022/06/28 11:01:20;;;;;;;15.32;3.10;;;;;;;;;;5016328;28;20207;-60
2022/06/28 11:04:04;;;;;;;15.65;3.40;;;;;;;;;;5015354;28;20189;-60
2022/06/28 11:06:44;;;;;;;12.48;3.13;;;;;;;;;;5014303;28;20212;-60
2022/06/28 11:09:22;;;;;;;13.90;2.90;;;;;;;;;;5013067;28;20188;-62
2022/06/28 11:12:07;;;;;;;14.30;3.30;;;;;;;;;;5014026;28;20275;-62
2022/06/28 11:14:36;;;;;;;10.10;2.92;;;;;;;;;;4997480;28;20695;-61
2022/06/28 11:17:02;;;;;;;15.55;2.70;;;;;;;;;;5015817;28;20210;-63
2022/06/28 11:19:28;;;;;;;14.27;2.75;;;;;;;;;;5015534;28;20213;-60
2022/06/28 11:21:55;;;;;;;16.25;3.03;;;;;;;;;;5014203;28;20201;-60
2022/06/28 11:24:23;;;;;;;17.25;3.15;;;;;;;;;;4998164;28;20295;-59
2022/06/28 11:29:35;;;;;;;15.55;2.88;;;;;;;;;;5015566;28;20189;-59
2022/06/28 11:32:01;;;;;;;18.05;3.03;;;;;;;;;;5013586;28;20515;-59
2022/06/28 11:34:27;;;;;;;17.35;3.08;;;;;;;;;;4997657;28;20220;-59
2022/06/28 11:36:57;;;;;;;15.38;3.10;;;;;;;;;;4997318;28;20571;-59
2022/06/28 11:39:24;;;;;;;18.38;3.08;;;;;;;;;;5015457;28;20220;-59
2022/06/28 11:41:51;;;;;;;17.70;2.78;;;;;;;;;;5012321;28;20247;-59
2022/06/28 11:44:17;;;;;;;15.27;2.58;;;;;;;;;;5014080;28;20188;-60
2022/06/28 11:46:44;;;;;;;18.38;3.10;;;;;;;;;;5014892;28;20172;-59
2022/06/28 11:49:11;;;;;;;12.32;2.83;;;;;;;;;;5014705;28;20196;-59
2022/06/28 11:51:40;;;;;;;15.18;3.05;;;;;;;;;;5013725;28;20181;-59
2022/06/28 11:54:07;;;;;;;12.98;2.47;;;;;;;;;;5012761;28;20192;-59
2022/06/28 12:10:38;;;;;;;14.07;2.70;;;;;;;;;;5101264;27;1283004;-63
2022/06/28 12:13:11;;;;;;;11.70;2.92;;;;;;;;;;5122243;28;20185;-64
2022/06/28 12:15:38;;;;;;;14.18;2.97;;;;;;;;;;5125842;28;20179;-63
2022/06/28 12:18:05;;;;;;;14.30;3.03;;;;;;;;;;5130224;28;20165;-63
2022/06/28 12:20:32;;;;;;;11.40;2.85;;;;;;;;;;5127639;28;20169;-62
2022/06/28 12:23:05;;;;;;;14.07;2.70;;;;;;;;;;5121220;28;20174;-63
2022/06/28 12:25:32;;;;;;;15.43;2.72;;;;;;;;;;5124252;28;20497;-64
2022/06/28 12:27:59;;;;;;;14.60;2.38;;;;;;;;;;5130742;27;20233;-63
2022/06/28 12:30:25;;;;;;;12.13;2.50;;;;;;;;;;5128279;28;20205;-63
2022/06/28 12:32:52;;;;;;;10.98;2.30;;;;;;;;;;5116348;27;20169;-62
2022/06/28 12:35:19;;;;;;;15.35;2.38;;;;;;;;;;5127582;28;20184;-63
2022/06/28 12:37:45;;;;;;;14.80;2.25;;;;;;;;;;5110316;28;20158;-62
2022/06/28 12:40:12;;;;;;;10.65;1.98;;;;;;;;;;5108731;28;20208;-63
2022/06/28 12:42:38;;;;;;;9.98;2.10;;;;;;;;;;5119225;27;20249;-62
2022/06/28 12:45:05;;;;;;;17.42;2.58;;;;;;;;;;5130445;28;20318;-63
2022/06/28 12:47:33;;;;;;;9.90;2.08;;;;;;;;;;5106305;28;20576;-63
2022/06/28 12:50:02;;;;;;;13.57;2.53;;;;;;;;;;5119480;28;20675;-62
2022/06/28 12:52:30;;;;;;;10.18;2.22;;;;;;;;;;5127701;28;20237;-62
2022/06/28 12:54:59;;;;;;;8.93;2.08;;;;;;;;;;5124997;28;20158;-63
2022/06/28 12:57:26;;;;;;;10.10;2.25;;;;;;;;;;5109681;28;20178;-62
2022/06/28 12:59:53;;;;;;;10.05;2.53;;;;;;;;;;5119244;28;20258;-63
2022/06/28 13:02:19;;;;;;;10.25;2.05;;;;;;;;;;5130249;28;20169;-62
2022/06/28 13:04:47;;;;;;;13.73;2.13;;;;;;;;;;5128966;27;20639;-63
2022/06/28 13:07:14;;;;;;;9.85;2.20;;;;;;;;;;5110296;28;20181;-62
2022/06/28 13:09:40;;;;;;;11.07;2.28;;;;;;;;;;5129890;28;20708;-62
2022/06/28 13:12:07;;;;;;;15.10;2.15;;;;;;;;;;5125875;27;20596;-62
2022/06/28 13:14:33;;;;;;;10.82;2.05;;;;;;;;;;5119055;28;20173;-63
2022/06/28 13:16:59;;;;;;;8.23;2.08;;;;;;;;;;5124266;28;20187;-65
2022/06/28 13:19:25;;;;;;;7.68;2.13;;;;;;;;;;5119470;27;20195;-63
2022/06/28 13:21:51;;;;;;;8.65;2.28;;;;;;;;;;5112969;28;20185;-63
2022/06/28 13:24:17;;;;;;;13.07;2.10;;;;;;;;;;5105847;28;20241;-63
2022/06/28 13:26:45;;;;;;;8.25;2.00;;;;;;;;;;5108898;28;20181;-63
2022/06/28 13:29:14;;;;;;;8.25;2.30;;;;;;;;;;5113938;28;20589;-63
2022/06/28 13:31:40;;;;;;;7.90;2.13;;;;;;;;;;5108802;28;20644;-64
2022/06/28 13:34:06;;;;;;;9.60;2.17;;;;;;;;;;5115205;28;20187;-63
2022/06/28 13:36:33;;;;;;;12.25;2.17;;;;;;;;;;5115167;28;20181;-63
2022/06/28 13:38:59;;;;;;;11.80;2.00;;;;;;;;;;5113629;28;20184;-63
2022/06/28 13:41:27;;;;;;;8.55;1.95;;;;;;;;;;5114175;28;20256;-63
2022/06/28 13:43:53;;;;;;;10.40;2.00;;;;;;;;;;5112406;28;20189;-63
2022/06/28 13:46:19;;;;;;;9.48;1.92;;;;;;;;;;5100422;27;20190;-65
2022/06/28 13:48:45;;;;;;;8.70;2.28;;;;;;;;;;5098892;27;20209;-58
2022/06/28 13:51:11;;;;;;;7.57;2.20;;;;;;;;;;5109157;28;20242;-58
2022/06/28 13:53:40;;;;;;;10.00;2.00;;;;;;;;;;5115429;28;20183;-58
2022/06/28 13:56:06;;;;;;;7.30;2.10;;;;;;;;;;5097359;28;20170;-58
2022/06/28 13:58:32;;;;;;;7.28;1.63;;;;;;;;;;5110622;27;20240;-59
2022/06/28 14:00:59;;;;;;;12.93;2.10;;;;;;;;;;5112216;27;20211;-59
2022/06/28 14:03:26;;;;;;;5.57;1.88;;;;;;;;;;5115651;28;20277;-59
2022/06/28 14:05:53;;;;;;;6.68;2.00;;;;;;;;;;5102098;28;20169;-60
2022/06/28 14:08:20;;;;;;;5.55;1.80;;;;;;;;;;5114565;28;20204;-61
2022/06/28 14:10:46;;;;;;;9.48;2.10;;;;;;;;;;5098316;28;20221;-60
2022/06/28 14:13:12;;;;;;;8.98;1.83;;;;;;;;;;5102829;28;20657;-60
2022/06/28 14:15:38;;;;;;;6.10;1.88;;;;;;;;;;5085528;28;20219;-58
2022/06/28 14:18:05;;;;;;;7.57;1.75;;;;;;;;;;5097707;28;20186;-60
2022/06/28 14:20:31;;;;;;;8.93;2.05;;;;;;;;;;5108618;28;20680;-59
2022/06/28 14:22:57;;;;;;;6.18;1.55;;;;;;;;;;5112689;28;20181;-58
2022/06/28 14:25:23;;;;;;;8.10;1.70;;;;;;;;;;5102074;28;20535;-60
2022/06/28 14:27:49;;;;;;;7.25;1.90;;;;;;;;;;5114814;28;20265;-59
2022/06/28 14:30:16;;;;;;;6.20;1.77;;;;;;;;;;5114292;28;20213;-59
2022/06/28 14:32:42;;;;;;;4.90;1.63;;;;;;;;;;5101206;28;20178;-60
2022/06/28 14:35:08;;;;;;;9.73;1.90;;;;;;;;;;5094275;28;20163;-59
2022/06/28 14:37:35;;;;;;;10.02;1.92;;;;;;;;;;5108161;28;20192;-59
2022/06/28 14:40:01;;;;;;;6.40;1.40;;;;;;;;;;5110964;28;20504;-60
2022/06/28 14:42:28;;;;;;;9.60;1.70;;;;;;;;;;5093136;28;20721;-58
2022/06/28 14:44:54;;;;;;;5.10;1.60;;;;;;;;;;5109302;27;20528;-59
2022/06/28 14:47:21;;;;;;;6.75;1.60;;;;;;;;;;5096353;28;20256;-59
2022/06/28 14:49:47;;;;;;;11.35;1.55;;;;;;;;;;5102804;28;20209;-58
2022/06/28 14:52:13;;;;;;;6.22;1.40;;;;;;;;;;5092906;28;20184;-58
2022/06/28 14:54:40;;;;;;;7.13;1.55;;;;;;;;;;5104417;28;20195;-59
2022/06/28 14:57:08;;;;;;;7.72;1.98;;;;;;;;;;5113243;28;20657;-58
2022/06/28 14:59:34;;;;;;;7.07;1.63;;;;;;;;;;5113869;28;20184;-58
2022/06/28 15:02:00;;;;;;;8.88;1.73;;;;;;;;;;5114183;28;20185;-59
2022/06/28 15:04:27;;;;;;;7.28;1.30;;;;;;;;;;5113929;28;20177;-59
2022/06/28 15:06:53;;;;;;;10.88;3.38;;;;;;;;;;5112164;27;20173;-59
2022/06/28 15:09:19;;;;;;;6.45;1.73;;;;;;;;;;5111317;27;20240;-58